CheckWX is a tool to help pilots better visualize weather data.  It is not intended as a substitute for an official pre-flight weather briefing.

14:49:34 UTC

KBDR TAF
Igor I Sikorsky Memorial Airport
Bridgeport, Connecticut, USA
KBDR 231430Z 2315/2412 29018G31KT P6SM SCT040 SCT100 FM231700 29015G29KT P6SM SCT040 FM232100 30017G26KT P6SM SKC FM240300 31011KT P6SM SKC FM241100 28007KT P6SM SKC

Mar-23@
15:00 UTC

Mar-23 @ 15:00 UTC

Mar-23@
17:00 UTC

Mar-23 @ 17:00 UTC

KBDR 231430Z 2315/2412 29018G31KT P6SM SCT040 SCT100
Wind
  • 290° at 18 KTS
  • {Gusting to 31 KTS
Cloud Levels
  • Scattered at 4,000' AGL
  • Scattered at 10,000' AGL

Mar-23@
17:00 UTC

Mar-23 @ 17:00 UTC

Mar-23@
21:00 UTC

Mar-23 @ 21:00 UTC

FM231700 29015G29KT P6SM SCT040

From

From Standard forecast or significant change

Wind
  • 290° at 15 KTS
  • {Gusting to 29 KTS
Cloud Levels
  • Scattered at 4,000' AGL

Mar-23@
21:00 UTC

Mar-23 @ 21:00 UTC

Mar-24@
03:00 UTC

Mar-24 @ 03:00 UTC

FM232100 30017G26KT P6SM SKC

From

From Standard forecast or significant change

Wind
  • 300° at 17 KTS
  • {Gusting to 26 KTS
Cloud Levels
  • Clear skies

Mar-24@
03:00 UTC

Mar-24 @ 03:00 UTC

Mar-24@
11:00 UTC

Mar-24 @ 11:00 UTC

FM240300 31011KT P6SM SKC

From

From Standard forecast or significant change

Wind
  • 310° at 11 KTS
Cloud Levels
  • Clear skies

Mar-24@
11:00 UTC

Mar-24 @ 11:00 UTC

Mar-24@
12:00 UTC

Mar-24 @ 12:00 UTC

FM241100 28007KT P6SM SKC

From

From Standard forecast or significant change

Wind
  • 280° at 7 KTS
Cloud Levels
  • Clear skies